Airfield :
LOGIN :

Register | Disclaimer

   EN    FR    IT 

 










Legend :    VFR   Marginal VFR   IFR   Intensive IFR   Very Intensive IFR
Visi :
Ceiling :
>= 8 km
>= 3000ft
5 to 8 km
1000 to 3000 ft
1500m to 5 km
500 to 1000 ft
800 to 1500m
200 to 500 ft
< 800m
< 200 ft
Symbols :   Thunderstorms  Fog  Heavy snow  Heavy precipitations  Wind > 20 kt
SIGMETs :     Misc.  Thunderstorms  Icing  Turbulence  Mountain Waves  Volcanic Ashes







- Airport Elevation : 23 ft
- IATA code : XFW


EDHI - Hamburg Finkenwerder

CURRENT METAR :
  • 281620Z 23009KT 200V260 9999 FEW030 SCT090 20/13 Q1010

EXPIRED METARs :
  • 281550Z 25012KT 9999 VCSH FEW030CB SCT066 18/13 Q1010
  • 281520Z 24014KT 9999 VCSH SCT030CB BKN055 17/13 Q1010
  • 281450Z 25012KT 9999 VCSH SCT030CB SCT080 19/13 Q1009
  • 281420Z 29007KT 260V320 9999 SCT030TCU SCT100 18/13 Q1009
  • 281350Z 29015G25KT 250V340 9999 FEW023 SCT026TCU SCT085 18/12 Q1009

TAF TAF EDHI
Valid from the 28 at 09:00 until the 28 at 18:00 UTC


280800Z 2809/2818 25015G25KT 9999 FEW015 SCT020
TEMPO 2809/2818 25020G30KT 4000 SHRA BKN014CB
PROB40
TEMPO 2810/2818 25025G35KT TSRA
BECMG 2817/2818 20005KT
No reported NOTAMs for that airfield.



MET'MAP, your aeronautical weather chart ! - Copyright ORBIFLY December 2007 - Disclaimer

ORBIFLY MET'MAP TEAM :

Programming & Development : Alexandra Zaïnal
Concept & Development : Baudouin d'Aumeries
Co-Development & Prog : Marc-Olivier Méhu
Technical & hardware support : Manuel Goepfert

Contact : metmap@orbifly.com




SOURCES & CREDITS :

   NOAA